Terminal Aerodrome Forecast
Issued by NWS

Home | Current Version | Previous Version | Text Only | Print | Product List | Glossary On
Versions: 1 2 3 4 5 6 7 8 9 10 11 12 13 14 15 16 17 18 19
000
FTUS41 KBTV 230500
TAFMPV
TAF
KMPV 230528Z 2306/2406 00000KT P6SM SCT015 OVC040
      TEMPO 2306/2308 3SM -DZ BR BKN015
     FM230800 00000KT 2SM -DZ BR OVC005
     FM231300 VRB03KT P6SM BKN030
     FM231800 07005KT P6SM BKN040
     FM240000 00000KT P6SM SCT040=

USA.gov is the U.S. government's official web portal to all federal, state and local government web resources and services.